sensor_id;sensor_type;location;lat;lon;timestamp;pressure;altitude;pressure_sealevel;temperature;humidity
50484;BME280;36409;52.168;20.878;2024-03-08T00:01:34;101394.70;;;-3.30;62.99
50484;BME280;36409;52.168;20.878;2024-03-08T00:04:07;101392.86;;;-3.32;62.98
50484;BME280;36409;52.168;20.878;2024-03-08T00:06:39;101399.63;;;-3.33;62.99
50484;BME280;36409;52.168;20.878;2024-03-08T00:09:12;101395.23;;;-3.35;63.11
50484;BME280;36409;52.168;20.878;2024-03-08T00:11:45;101390.01;;;-3.37;63.18
50484;BME280;36409;52.168;20.878;2024-03-08T00:14:20;101394.17;;;-3.39;63.18
50484;BME280;36409;52.168;20.878;2024-03-08T00:16:54;101389.93;;;-3.38;63.17
50484;BME280;36409;52.168;20.878;2024-03-08T00:19:27;101394.17;;;-3.39;63.27
50484;BME280;36409;52.168;20.878;2024-03-08T00:22:02;101395.63;;;-3.43;63.20
50484;BME280;36409;52.168;20.878;2024-03-08T00:24:35;101393.91;;;-3.44;63.43
50484;BME280;36409;52.168;20.878;2024-03-08T00:27:09;101393.71;;;-3.47;63.53
50484;BME280;36409;52.168;20.878;2024-03-08T00:29:43;101385.94;;;-3.48;63.43
50484;BME280;36409;52.168;20.878;2024-03-08T00:32:18;101389.31;;;-3.49;63.77
50484;BME280;36409;52.168;20.878;2024-03-08T00:34:53;101390.97;;;-3.50;63.49
50484;BME280;36409;52.168;20.878;2024-03-08T00:37:25;101385.94;;;-3.48;63.52
50484;BME280;36409;52.168;20.878;2024-03-08T00:39:57;101387.81;;;-3.46;63.66
50484;BME280;36409;52.168;20.878;2024-03-08T00:42:30;101389.47;;;-3.46;63.57
50484;BME280;36409;52.168;20.878;2024-03-08T00:45:05;101389.47;;;-3.46;63.68
50484;BME280;36409;52.168;20.878;2024-03-08T00:47:38;101388.61;;;-3.47;63.36
50484;BME280;36409;52.168;20.878;2024-03-08T00:50:11;101390.18;;;-3.49;63.67
50484;BME280;36409;52.168;20.878;2024-03-08T00:52:47;101387.44;;;-3.52;63.89
50484;BME280;36409;52.168;20.878;2024-03-08T00:55:21;101379.70;;;-3.53;63.75
50484;BME280;36409;52.168;20.878;2024-03-08T00:57:55;101375.30;;;-3.56;63.87
50484;BME280;36409;52.168;20.878;2024-03-08T01:00:28;101377.86;;;-3.56;63.79
50484;BME280;36409;52.168;20.878;2024-03-08T01:03:01;101380.30;;;-3.58;64.13
50484;BME280;36409;52.168;20.878;2024-03-08T01:05:40;101379.43;;;-3.58;63.89
50484;BME280;36409;52.168;20.878;2024-03-08T01:08:12;101376.17;;;-3.55;64.07
50484;BME280;36409;52.168;20.878;2024-03-08T01:10:47;101371.96;;;-3.55;64.36
50484;BME280;36409;52.168;20.878;2024-03-08T01:13:23;101382.06;;;-3.57;64.05
50484;BME280;36409;52.168;20.878;2024-03-08T01:15:57;101378.72;;;-3.55;64.26
50484;BME280;36409;52.168;20.878;2024-03-08T01:18:33;101371.06;;;-3.55;64.27
50484;BME280;36409;52.168;20.878;2024-03-08T01:21:06;101372.04;;;-3.53;64.22
50484;BME280;36409;52.168;20.878;2024-03-08T01:23:40;101370.35;;;-3.53;64.27
50484;BME280;36409;52.168;20.878;2024-03-08T01:26:11;101366.15;;;-3.52;64.45
50484;BME280;36409;52.168;20.878;2024-03-08T01:28:46;101367.02;;;-3.52;64.19
50484;BME280;36409;52.168;20.878;2024-03-08T01:31:18;101370.47;;;-3.51;64.25
50484;BME280;36409;52.168;20.878;2024-03-08T01:33:52;101365.36;;;-3.51;64.39
50484;BME280;36409;52.168;20.878;2024-03-08T01:36:25;101372.23;;;-3.50;64.40
50484;BME280;36409;52.168;20.878;2024-03-08T01:38:58;101365.36;;;-3.51;64.18
50484;BME280;36409;52.168;20.878;2024-03-08T01:41:30;101364.45;;;-3.52;64.45
50484;BME280;36409;52.168;20.878;2024-03-08T01:44:03;101366.15;;;-3.52;64.29
50484;BME280;36409;52.168;20.878;2024-03-08T01:46:41;101364.30;;;-3.55;64.34
50484;BME280;36409;52.168;20.878;2024-03-08T01:49:16;101364.98;;;-3.58;64.28
50484;BME280;36409;52.168;20.878;2024-03-08T01:51:49;101359.80;;;-3.59;64.53
50484;BME280;36409;52.168;20.878;2024-03-08T01:54:22;101358.89;;;-3.60;64.50
50484;BME280;36409;52.168;20.878;2024-03-08T01:56:56;101350.45;;;-3.59;64.42
50484;BME280;36409;52.168;20.878;2024-03-08T01:59:30;101355.55;;;-3.59;64.17
50484;BME280;36409;52.168;20.878;2024-03-08T02:02:04;101360.66;;;-3.59;65.02
50484;BME280;36409;52.168;20.878;2024-03-08T02:04:40;101358.89;;;-3.60;64.46
50484;BME280;36409;52.168;20.878;2024-03-08T02:07:13;101353.71;;;-3.61;64.73
50484;BME280;36409;52.168;20.878;2024-03-08T02:09:47;101347.62;;;-3.63;64.69
50484;BME280;36409;52.168;20.878;2024-03-08T02:12:21;101346.77;;;-3.64;64.87
50484;BME280;36409;52.168;20.878;2024-03-08T02:14:54;101342.37;;;-3.66;64.67
50484;BME280;36409;52.168;20.878;2024-03-08T02:17:27;101342.89;;;-3.72;64.54
50484;BME280;36409;52.168;20.878;2024-03-08T02:20:01;101342.50;;;-3.78;64.41
50484;BME280;36409;52.168;20.878;2024-03-08T02:22:34;101339.67;;;-3.83;64.68
50484;BME280;36409;52.168;20.878;2024-03-08T02:25:10;101342.83;;;-3.87;64.83
50484;BME280;36409;52.168;20.878;2024-03-08T02:27:43;101336.77;;;-3.89;64.62
50484;BME280;36409;52.168;20.878;2024-03-08T02:30:15;101337.45;;;-3.92;64.77
50484;BME280;36409;52.168;20.878;2024-03-08T02:32:49;101336.47;;;-3.94;64.87
50484;BME280;36409;52.168;20.878;2024-03-08T02:35:26;101337.28;;;-3.95;64.97
50484;BME280;36409;52.168;20.878;2024-03-08T02:37:59;101341.49;;;-3.95;64.80
50484;BME280;36409;52.168;20.878;2024-03-08T02:40:32;101329.44;;;-3.98;64.85
50484;BME280;36409;52.168;20.878;2024-03-08T02:43:05;101334.63;;;-3.96;65.02
50484;BME280;36409;52.168;20.878;2024-03-08T02:45:38;101332.19;;;-3.95;65.17
50484;BME280;36409;52.168;20.878;2024-03-08T02:48:14;101336.47;;;-3.94;65.01
50484;BME280;36409;52.168;20.878;2024-03-08T02:50:47;101337.37;;;-3.93;64.96
50484;BME280;36409;52.168;20.878;2024-03-08T02:53:24;101329.63;;;-3.95;65.17
50484;BME280;36409;52.168;20.878;2024-03-08T02:55:59;101329.63;;;-3.95;65.19
50484;BME280;36409;52.168;20.878;2024-03-08T02:58:32;101329.52;;;-3.96;65.13
50484;BME280;36409;52.168;20.878;2024-03-08T03:01:06;101325.91;;;-4.00;65.04
50484;BME280;36409;52.168;20.878;2024-03-08T03:03:42;101322.38;;;-4.02;65.05
50484;BME280;36409;52.168;20.878;2024-03-08T03:06:15;101323.09;;;-4.05;65.21
50484;BME280;36409;52.168;20.878;2024-03-08T03:08:48;101324.46;;;-4.10;65.01
50484;BME280;36409;52.168;20.878;2024-03-08T03:11:26;101333.60;;;-4.13;65.00
50484;BME280;36409;52.168;20.878;2024-03-08T03:13:59;101331.05;;;-4.13;65.28
50484;BME280;36409;52.168;20.878;2024-03-08T03:16:32;101330.19;;;-4.14;65.23
50484;BME280;36409;52.168;20.878;2024-03-08T03:19:05;101341.17;;;-4.15;65.14
50484;BME280;36409;52.168;20.878;2024-03-08T03:21:39;101335.09;;;-4.17;65.23
50484;BME280;36409;52.168;20.878;2024-03-08T03:24:12;101330.78;;;-4.18;65.50
50484;BME280;36409;52.168;20.878;2024-03-08T03:26:47;101328.03;;;-4.21;65.34
50484;BME280;36409;52.168;20.878;2024-03-08T03:29:25;101327.75;;;-4.26;65.29
50484;BME280;36409;52.168;20.878;2024-03-08T03:31:57;101325.82;;;-4.30;65.30
50484;BME280;36409;52.168;20.878;2024-03-08T03:34:30;101331.70;;;-4.31;65.33
50484;BME280;36409;52.168;20.878;2024-03-08T03:37:02;101329.04;;;-4.32;65.57
50484;BME280;36409;52.168;20.878;2024-03-08T03:39:38;101328.09;;;-4.35;65.41
50484;BME280;36409;52.168;20.878;2024-03-08T03:42:21;101321.89;;;-4.38;65.59
50484;BME280;36409;52.168;20.878;2024-03-08T03:44:55;101315.84;;;-4.40;65.14
50484;BME280;36409;52.168;20.878;2024-03-08T03:47:30;101323.38;;;-4.42;65.28
50484;BME280;36409;52.168;20.878;2024-03-08T03:50:03;101322.52;;;-4.42;65.74
50484;BME280;36409;52.168;20.878;2024-03-08T03:52:35;101316.62;;;-4.41;65.62
50484;BME280;36409;52.168;20.878;2024-03-08T03:55:10;101316.52;;;-4.43;65.44
50484;BME280;36409;52.168;20.878;2024-03-08T03:57:43;101318.12;;;-4.45;65.68
50484;BME280;36409;52.168;20.878;2024-03-08T04:00:18;101312.03;;;-4.47;65.34
50484;BME280;36409;52.168;20.878;2024-03-08T04:02:55;101310.35;;;-4.46;65.79
50484;BME280;36409;52.168;20.878;2024-03-08T04:05:30;101312.12;;;-4.45;66.08
50484;BME280;36409;52.168;20.878;2024-03-08T04:08:03;101309.57;;;-4.45;65.86
50484;BME280;36409;52.168;20.878;2024-03-08T04:10:35;101307.22;;;-4.42;66.02
50484;BME280;36409;52.168;20.878;2024-03-08T04:13:08;101308.98;;;-4.41;65.94
50484;BME280;36409;52.168;20.878;2024-03-08T04:15:41;101306.23;;;-4.44;65.78
50484;BME280;36409;52.168;20.878;2024-03-08T04:18:19;101307.80;;;-4.46;65.81
50484;BME280;36409;52.168;20.878;2024-03-08T04:20:55;101308.59;;;-4.47;65.81
50484;BME280;36409;52.168;20.878;2024-03-08T04:23:27;101305.17;;;-4.48;65.67
50484;BME280;36409;52.168;20.878;2024-03-08T04:26:00;101305.17;;;-4.48;65.70
50484;BME280;36409;52.168;20.878;2024-03-08T04:28:34;101298.23;;;-4.51;65.92
50484;BME280;36409;52.168;20.878;2024-03-08T04:31:10;101309.29;;;-4.50;65.93
50484;BME280;36409;52.168;20.878;2024-03-08T04:33:45;101304.19;;;-4.50;65.95
50484;BME280;36409;52.168;20.878;2024-03-08T04:36:18;101302.63;;;-4.48;66.00
50484;BME280;36409;52.168;20.878;2024-03-08T04:38:50;101301.64;;;-4.50;66.42
50484;BME280;36409;52.168;20.878;2024-03-08T04:41:23;101304.89;;;-4.53;66.05
50484;BME280;36409;52.168;20.878;2024-03-08T04:43:56;101302.34;;;-4.53;66.06
50484;BME280;36409;52.168;20.878;2024-03-08T04:46:47;101307.44;;;-4.53;66.24
50484;BME280;36409;52.168;20.878;2024-03-08T04:49:40;101302.06;;;-4.57;65.78
50484;BME280;36409;52.168;20.878;2024-03-08T04:52:14;101300.30;;;-4.58;66.13
50484;BME280;36409;52.168;20.878;2024-03-08T04:54:52;101293.63;;;-4.56;66.17
50484;BME280;36409;52.168;20.878;2024-03-08T04:57:24;101303.91;;;-4.55;66.27
50484;BME280;36409;52.168;20.878;2024-03-08T04:59:58;101303.98;;;-4.53;66.30
50484;BME280;36409;52.168;20.878;2024-03-08T05:02:30;101302.34;;;-4.53;66.60
50484;BME280;36409;52.168;20.878;2024-03-08T05:05:03;101301.36;;;-4.55;66.02
50484;BME280;36409;52.168;20.878;2024-03-08T05:07:37;101305.76;;;-4.52;66.21
50484;BME280;36409;52.168;20.878;2024-03-08T05:10:11;101305.76;;;-4.52;66.38
50484;BME280;36409;52.168;20.878;2024-03-08T05:12:51;101309.29;;;-4.50;66.38
50484;BME280;36409;52.168;20.878;2024-03-08T05:15:29;101307.61;;;-4.50;66.28
50484;BME280;36409;52.168;20.878;2024-03-08T05:18:06;101305.17;;;-4.48;66.38
50484;BME280;36409;52.168;20.878;2024-03-08T05:20:42;101310.35;;;-4.46;66.25
50484;BME280;36409;52.168;20.878;2024-03-08T05:23:17;101307.02;;;-4.45;66.25
50484;BME280;36409;52.168;20.878;2024-03-08T05:25:52;101315.73;;;-4.42;66.25
50484;BME280;36409;52.168;20.878;2024-03-08T05:28:24;101304.95;;;-4.38;66.39
50484;BME280;36409;52.168;20.878;2024-03-08T05:31:03;101308.56;;;-4.34;66.49
50484;BME280;36409;52.168;20.878;2024-03-08T05:33:36;101301.97;;;-4.30;66.44
50484;BME280;36409;52.168;20.878;2024-03-08T05:36:09;101306.56;;;-4.25;66.71
50484;BME280;36409;52.168;20.878;2024-03-08T05:38:43;101301.66;;;-4.22;66.66
50484;BME280;36409;52.168;20.878;2024-03-08T05:41:15;101301.86;;;-4.19;66.74
50484;BME280;36409;52.168;20.878;2024-03-08T05:43:48;101304.56;;;-4.15;66.29
50484;BME280;36409;52.168;20.878;2024-03-08T05:46:21;101295.16;;;-4.16;66.30
50484;BME280;36409;52.168;20.878;2024-03-08T05:48:54;101295.27;;;-4.15;66.42
50484;BME280;36409;52.168;20.878;2024-03-08T05:51:27;101291.14;;;-4.13;66.74
50484;BME280;36409;52.168;20.878;2024-03-08T05:53:59;101294.95;;;-4.06;66.82
50484;BME280;36409;52.168;20.878;2024-03-08T05:56:34;101298.72;;;-3.99;66.52
50484;BME280;36409;52.168;20.878;2024-03-08T05:59:06;101297.41;;;-3.93;66.78
50484;BME280;36409;52.168;20.878;2024-03-08T06:01:42;101300.54;;;-3.83;66.99
50484;BME280;36409;52.168;20.878;2024-03-08T06:04:14;101302.65;;;-3.76;66.94
50484;BME280;36409;52.168;20.878;2024-03-08T06:06:49;101298.79;;;-3.69;66.72
50484;BME280;36409;52.168;20.878;2024-03-08T06:09:23;101304.42;;;-3.60;67.03
50484;BME280;36409;52.168;20.878;2024-03-08T06:11:58;101304.87;;;-3.52;66.96
50484;BME280;36409;52.168;20.878;2024-03-08T06:14:33;101302.06;;;-3.42;67.04
50484;BME280;36409;52.168;20.878;2024-03-08T06:17:05;101304.27;;;-3.33;66.97
50484;BME280;36409;52.168;20.878;2024-03-08T06:19:38;101301.27;;;-3.26;67.03
50484;BME280;36409;52.168;20.878;2024-03-08T06:22:12;101310.41;;;-3.15;67.13
50484;BME280;36409;52.168;20.878;2024-03-08T06:24:45;101305.73;;;-3.07;67.19
50484;BME280;36409;52.168;20.878;2024-03-08T06:27:20;101306.97;;;-3.00;67.30
50484;BME280;36409;52.168;20.878;2024-03-08T06:29:53;101309.06;;;-2.93;67.39
50484;BME280;36409;52.168;20.878;2024-03-08T06:32:31;101310.46;;;-2.83;67.18
50484;BME280;36409;52.168;20.878;2024-03-08T06:35:08;101300.63;;;-2.75;67.28
50484;BME280;36409;52.168;20.878;2024-03-08T06:37:41;101310.59;;;-2.65;67.45
50484;BME280;36409;52.168;20.878;2024-03-08T06:40:17;101308.61;;;-2.54;67.27
50484;BME280;36409;52.168;20.878;2024-03-08T06:42:55;101316.08;;;-2.42;67.65
50484;BME280;36409;52.168;20.878;2024-03-08T06:45:28;101314.00;;;-2.33;67.67
50484;BME280;36409;52.168;20.878;2024-03-08T06:48:01;101305.22;;;-2.22;67.76
50484;BME280;36409;52.168;20.878;2024-03-08T06:50:34;101308.33;;;-2.11;67.26
50484;BME280;36409;52.168;20.878;2024-03-08T06:53:08;101310.56;;;-2.00;67.74
50484;BME280;36409;52.168;20.878;2024-03-08T06:55:43;101310.17;;;-1.92;67.59
50484;BME280;36409;52.168;20.878;2024-03-08T06:58:19;101308.24;;;-1.79;67.46
50484;BME280;36409;52.168;20.878;2024-03-08T07:00:51;101305.52;;;-1.66;67.99
50484;BME280;36409;52.168;20.878;2024-03-08T07:03:24;101307.06;;;-1.51;67.66
50484;BME280;36409;52.168;20.878;2024-03-08T07:06:00;101305.21;;;-1.37;68.19
50484;BME280;36409;52.168;20.878;2024-03-08T07:08:35;101302.09;;;-1.14;68.43
50484;BME280;36409;52.168;20.878;2024-03-08T07:11:11;101299.05;;;0.28;67.17
50484;BME280;36409;52.168;20.878;2024-03-08T07:13:47;101294.35;;;1.02;66.76
50484;BME280;36409;52.168;20.878;2024-03-08T07:16:22;101293.50;;;1.94;68.04
50484;BME280;36409;52.168;20.878;2024-03-08T07:18:57;101289.45;;;3.33;67.08
50484;BME280;36409;52.168;20.878;2024-03-08T07:21:30;101285.77;;;4.85;66.70
50484;BME280;36409;52.168;20.878;2024-03-08T07:24:04;101276.77;;;6.85;65.38
50484;BME280;36409;52.168;20.878;2024-03-08T07:26:56;101270.30;;;8.74;63.99
50484;BME280;36409;52.168;20.878;2024-03-08T07:29:29;101273.47;;;9.70;63.77
50484;BME280;36409;52.168;20.878;2024-03-08T07:32:01;101263.20;;;10.91;62.34
50484;BME280;36409;52.168;20.878;2024-03-08T07:34:43;101264.58;;;12.00;61.44
50484;BME280;36409;52.168;20.878;2024-03-08T07:37:15;101265.80;;;12.76;61.91
50484;BME280;36409;52.168;20.878;2024-03-08T07:39:48;101265.00;;;13.52;62.20
50484;BME280;36409;52.168;20.878;2024-03-08T07:42:22;101267.84;;;13.30;61.77
50484;BME280;36409;52.168;20.878;2024-03-08T07:44:58;101264.17;;;12.59;61.58
50484;BME280;36409;52.168;20.878;2024-03-08T07:47:30;101261.16;;;13.04;60.96
50484;BME280;36409;52.168;20.878;2024-03-08T07:50:07;101266.99;;;13.29;59.86
50484;BME280;36409;52.168;20.878;2024-03-08T07:52:40;101263.15;;;13.62;59.06
50484;BME280;36409;52.168;20.878;2024-03-08T07:55:13;101260.17;;;13.89;57.14
50484;BME280;36409;52.168;20.878;2024-03-08T07:57:45;101261.34;;;13.67;57.54
50484;BME280;36409;52.168;20.878;2024-03-08T08:03:07;101251.55;;;14.92;57.93
50484;BME280;36409;52.168;20.878;2024-03-08T08:05:43;101245.07;;;15.54;56.98
50484;BME280;36409;52.168;20.878;2024-03-08T08:08:17;101247.33;;;16.14;56.60
50484;BME280;36409;52.168;20.878;2024-03-08T08:10:49;101248.41;;;16.77;56.38
50484;BME280;36409;52.168;20.878;2024-03-08T08:13:22;101241.95;;;17.52;56.17
50484;BME280;36409;52.168;20.878;2024-03-08T08:15:55;101237.94;;;18.54;54.15
50484;BME280;36409;52.168;20.878;2024-03-08T08:18:27;101242.38;;;19.53;53.85
50484;BME280;36409;52.168;20.878;2024-03-08T08:21:00;101237.92;;;20.87;52.35
50484;BME280;36409;52.168;20.878;2024-03-08T08:23:36;101231.14;;;21.79;50.63
50484;BME280;36409;52.168;20.878;2024-03-08T08:26:11;101224.84;;;22.18;50.54
50484;BME280;36409;52.168;20.878;2024-03-08T08:28:46;101234.05;;;20.94;51.40
50484;BME280;36409;52.168;20.878;2024-03-08T08:31:18;101229.59;;;19.41;51.66
50484;BME280;36409;52.168;20.878;2024-03-08T08:33:51;101228.64;;;17.85;51.20
50484;BME280;36409;52.168;20.878;2024-03-08T08:36:29;101234.67;;;16.28;51.49
50484;BME280;36409;52.168;20.878;2024-03-08T08:39:06;101238.05;;;15.11;51.30
50484;BME280;36409;52.168;20.878;2024-03-08T08:41:44;101239.28;;;13.82;50.97
50484;BME280;36409;52.168;20.878;2024-03-08T08:44:18;101239.38;;;12.97;51.51
50484;BME280;36409;52.168;20.878;2024-03-08T08:46:54;101245.24;;;12.23;51.75
50484;BME280;36409;52.168;20.878;2024-03-08T08:49:36;101239.54;;;11.47;52.35
50484;BME280;36409;52.168;20.878;2024-03-08T08:52:11;101238.00;;;10.62;51.35
50484;BME280;36409;52.168;20.878;2024-03-08T08:54:47;101240.53;;;10.03;53.05
50484;BME280;36409;52.168;20.878;2024-03-08T08:57:21;101237.83;;;9.64;52.21
50484;BME280;36409;52.168;20.878;2024-03-08T08:59:57;101238.47;;;9.18;52.09
50484;BME280;36409;52.168;20.878;2024-03-08T09:02:29;101243.47;;;8.81;53.29
50484;BME280;36409;52.168;20.878;2024-03-08T09:05:02;101232.91;;;8.61;53.10
50484;BME280;36409;52.168;20.878;2024-03-08T09:07:34;101231.77;;;8.34;53.79
50484;BME280;36409;52.168;20.878;2024-03-08T09:10:08;101233.41;;;8.21;53.59
50484;BME280;36409;52.168;20.878;2024-03-08T09:12:46;101234.98;;;8.03;53.61
50484;BME280;36409;52.168;20.878;2024-03-08T09:15:18;101229.02;;;8.17;53.86
50484;BME280;36409;52.168;20.878;2024-03-08T09:17:50;101224.66;;;9.30;53.97
50484;BME280;36409;52.168;20.878;2024-03-08T09:20:29;101217.88;;;11.20;51.37
50484;BME280;36409;52.168;20.878;2024-03-08T09:23:03;101201.66;;;13.81;49.56
50484;BME280;36409;52.168;20.878;2024-03-08T09:25:36;101193.55;;;15.86;47.61
50484;BME280;36409;52.168;20.878;2024-03-08T09:28:10;101201.69;;;17.45;46.50
50484;BME280;36409;52.168;20.878;2024-03-08T09:30:43;101194.24;;;18.69;45.35
50484;BME280;36409;52.168;20.878;2024-03-08T09:33:29;101191.30;;;19.73;44.81
50484;BME280;36409;52.168;20.878;2024-03-08T09:36:08;101184.23;;;20.39;43.71
50484;BME280;36409;52.168;20.878;2024-03-08T09:38:43;101185.71;;;20.88;43.44
50484;BME280;36409;52.168;20.878;2024-03-08T09:41:15;101183.59;;;21.15;42.52
50484;BME280;36409;52.168;20.878;2024-03-08T09:43:48;101182.02;;;21.49;42.24
50484;BME280;36409;52.168;20.878;2024-03-08T09:46:21;101173.99;;;21.70;41.94
50484;BME280;36409;52.168;20.878;2024-03-08T09:48:55;101185.56;;;21.50;41.73
50484;BME280;36409;52.168;20.878;2024-03-08T09:51:29;101181.95;;;21.12;41.83
50484;BME280;36409;52.168;20.878;2024-03-08T09:54:04;101188.16;;;20.51;42.71
50484;BME280;36409;52.168;20.878;2024-03-08T09:56:48;101180.25;;;19.86;43.17
50484;BME280;36409;52.168;20.878;2024-03-08T09:59:21;101179.42;;;19.14;43.95
50484;BME280;36409;52.168;20.878;2024-03-08T10:02:15;101182.09;;;18.38;44.49
50484;BME280;36409;52.168;20.878;2024-03-08T10:04:48;101184.17;;;17.73;43.90
50484;BME280;36409;52.168;20.878;2024-03-08T10:07:24;101189.85;;;16.99;43.79
50484;BME280;36409;52.168;20.878;2024-03-08T10:09:57;101184.62;;;16.28;44.37
50484;BME280;36409;52.168;20.878;2024-03-08T10:12:30;101188.31;;;15.83;45.44
50484;BME280;36409;52.168;20.878;2024-03-08T10:15:03;101187.54;;;15.39;45.35
50484;BME280;36409;52.168;20.878;2024-03-08T10:17:35;101190.20;;;14.93;45.76
50484;BME280;36409;52.168;20.878;2024-03-08T10:20:16;101184.57;;;14.65;46.30
50484;BME280;36409;52.168;20.878;2024-03-08T10:22:49;101180.42;;;14.51;45.92
50484;BME280;36409;52.168;20.878;2024-03-08T10:25:37;101177.32;;;14.29;45.75
50484;BME280;36409;52.168;20.878;2024-03-08T10:28:10;101176.67;;;14.15;46.17
50484;BME280;36409;52.168;20.878;2024-03-08T10:30:49;101178.75;;;13.93;45.55
50484;BME280;36409;52.168;20.878;2024-03-08T10:33:24;101178.22;;;13.70;45.53
50484;BME280;36409;52.168;20.878;2024-03-08T10:35:57;101175.87;;;13.50;45.87
50484;BME280;36409;52.168;20.878;2024-03-08T10:38:37;101170.69;;;13.46;45.93
50484;BME280;36409;52.168;20.878;2024-03-08T10:41:12;101171.41;;;13.57;46.16
50484;BME280;36409;52.168;20.878;2024-03-08T10:44:01;101168.92;;;13.48;45.26
50484;BME280;36409;52.168;20.878;2024-03-08T10:46:47;101166.48;;;13.31;46.20
50484;BME280;36409;52.168;20.878;2024-03-08T10:49:29;101171.70;;;13.34;45.56
50484;BME280;36409;52.168;20.878;2024-03-08T10:52:06;101178.06;;;13.12;46.22
50484;BME280;36409;52.168;20.878;2024-03-08T10:54:38;101165.16;;;12.95;46.03
50484;BME280;36409;52.168;20.878;2024-03-08T10:57:17;101160.96;;;12.80;45.08
50484;BME280;36409;52.168;20.878;2024-03-08T10:59:54;101160.96;;;12.80;46.22
50484;BME280;36409;52.168;20.878;2024-03-08T11:02:29;101154.08;;;12.69;45.90
50484;BME280;36409;52.168;20.878;2024-03-08T11:05:03;101154.33;;;12.45;45.19
50484;BME280;36409;52.168;20.878;2024-03-08T11:07:36;101157.96;;;12.30;45.04
50484;BME280;36409;52.168;20.878;2024-03-08T11:10:22;101148.50;;;12.15;46.08
50484;BME280;36409;52.168;20.878;2024-03-08T11:13:01;101152.02;;;12.08;45.88
50484;BME280;36409;52.168;20.878;2024-03-08T11:15:34;101145.08;;;12.05;46.16
50484;BME280;36409;52.168;20.878;2024-03-08T11:18:11;101146.80;;;12.05;46.14
50484;BME280;36409;52.168;20.878;2024-03-08T11:20:43;101148.56;;;12.04;45.39
50484;BME280;36409;52.168;20.878;2024-03-08T11:23:23;101139.08;;;11.86;45.69
50484;BME280;36409;52.168;20.878;2024-03-08T11:25:57;101137.42;;;11.73;45.49
50484;BME280;36409;52.168;20.878;2024-03-08T11:28:32;101136.59;;;11.66;46.45
50484;BME280;36409;52.168;20.878;2024-03-08T11:31:31;101133.98;;;11.68;46.28
50484;BME280;36409;52.168;20.878;2024-03-08T11:34:19;101126.15;;;11.65;45.46
50484;BME280;36409;52.168;20.878;2024-03-08T11:36:54;101121.91;;;11.47;45.16
50484;BME280;36409;52.168;20.878;2024-03-08T11:39:27;101121.17;;;11.21;45.96
50484;BME280;36409;52.168;20.878;2024-03-08T11:41:59;101122.97;;;11.13;45.85
50484;BME280;36409;52.168;20.878;2024-03-08T11:44:32;101127.34;;;11.03;44.93
50484;BME280;36409;52.168;20.878;2024-03-08T11:47:09;101124.80;;;10.86;45.64
50484;BME280;36409;52.168;20.878;2024-03-08T11:49:43;101121.36;;;10.70;45.64
50484;BME280;36409;52.168;20.878;2024-03-08T11:52:19;101120.51;;;10.60;45.70
50484;BME280;36409;52.168;20.878;2024-03-08T11:54:54;101112.69;;;10.62;45.30
50484;BME280;36409;52.168;20.878;2024-03-08T11:57:29;101108.31;;;10.70;45.95
50484;BME280;36409;52.168;20.878;2024-03-08T12:00:01;101112.66;;;10.68;45.72
50484;BME280;36409;52.168;20.878;2024-03-08T12:02:38;101104.84;;;10.66;46.35
50484;BME280;36409;52.168;20.878;2024-03-08T12:05:13;101100.48;;;10.70;45.81
50484;BME280;36409;52.168;20.878;2024-03-08T12:07:57;101107.42;;;10.73;45.68
50484;BME280;36409;52.168;20.878;2024-03-08T12:10:30;101104.86;;;10.56;45.84
50484;BME280;36409;52.168;20.878;2024-03-08T12:13:03;101096.21;;;10.38;45.23
50484;BME280;36409;52.168;20.878;2024-03-08T12:15:43;101088.34;;;10.27;45.50
50484;BME280;36409;52.168;20.878;2024-03-08T12:18:15;101095.31;;;10.31;45.63
50484;BME280;36409;52.168;20.878;2024-03-08T12:20:47;101091.81;;;10.31;46.19
50484;BME280;36409;52.168;20.878;2024-03-08T12:23:21;101083.14;;;10.23;46.01
50484;BME280;36409;52.168;20.878;2024-03-08T12:25:55;101085.77;;;10.13;45.67
50484;BME280;36409;52.168;20.878;2024-03-08T12:28:28;101086.62;;;10.17;45.28
50484;BME280;36409;52.168;20.878;2024-03-08T12:31:01;101078.79;;;10.22;46.19
50484;BME280;36409;52.168;20.878;2024-03-08T12:33:36;101078.79;;;10.22;45.93
50484;BME280;36409;52.168;20.878;2024-03-08T12:36:15;101075.33;;;10.21;46.51
50484;BME280;36409;52.168;20.878;2024-03-08T12:38:49;101074.48;;;10.13;45.74
50484;BME280;36409;52.168;20.878;2024-03-08T12:41:22;101076.20;;;9.97;45.36
50484;BME280;36409;52.168;20.878;2024-03-08T12:43:54;101062.31;;;9.74;45.80
50484;BME280;36409;52.168;20.878;2024-03-08T12:46:27;101066.66;;;9.76;45.63
50484;BME280;36409;52.168;20.878;2024-03-08T12:49:01;101056.23;;;9.76;45.57
50484;BME280;36409;52.168;20.878;2024-03-08T12:51:35;101056.22;;;9.77;45.70
50484;BME280;36409;52.168;20.878;2024-03-08T12:54:10;101059.70;;;9.74;46.49
50484;BME280;36409;52.168;20.878;2024-03-08T12:56:44;101048.39;;;9.65;45.74
50484;BME280;36409;52.168;20.878;2024-03-08T12:59:16;101049.28;;;9.56;45.70
50484;BME280;36409;52.168;20.878;2024-03-08T13:01:48;101044.91;;;9.38;45.70
50484;BME280;36409;52.168;20.878;2024-03-08T13:04:22;101044.02;;;9.22;45.83
50484;BME280;36409;52.168;20.878;2024-03-08T13:06:56;101051.79;;;9.11;45.38
50484;BME280;36409;52.168;20.878;2024-03-08T13:09:29;101038.77;;;9.05;45.38
50484;BME280;36409;52.168;20.878;2024-03-08T13:12:03;101038.73;;;8.99;45.90
50484;BME280;36409;52.168;20.878;2024-03-08T13:14:36;101032.66;;;9.00;45.69
50484;BME280;36409;52.168;20.878;2024-03-08T13:17:09;101033.54;;;9.02;46.17
50484;BME280;36409;52.168;20.878;2024-03-08T13:19:43;101032.66;;;9.00;46.05
50484;BME280;36409;52.168;20.878;2024-03-08T13:22:15;101029.14;;;8.90;45.65